createdAt,value
2023-03-22T00:02:09.021Z,59.41
2023-03-22T00:05:13.620Z,58.01
2023-03-22T00:08:17.510Z,58.49
2023-03-22T00:11:24.302Z,58.42
2023-03-22T00:14:29.770Z,57.59
2023-03-22T00:17:33.860Z,58.18
2023-03-22T00:20:42.009Z,56.80
2023-03-22T00:23:47.676Z,57.35
2023-03-22T00:26:52.386Z,56.73
2023-03-22T00:29:59.328Z,57.01
2023-03-22T00:33:03.046Z,56.66
2023-03-22T00:36:09.386Z,56.18
2023-03-22T00:39:12.988Z,56.17
2023-03-22T00:42:17.071Z,55.73
2023-03-22T00:45:22.442Z,56.19
2023-03-22T00:48:26.663Z,55.54
2023-03-22T00:51:31.728Z,56.91
2023-03-22T00:54:36.044Z,56.20
2023-03-22T00:57:40.435Z,55.50
2023-03-22T01:00:46.828Z,56.61
2023-03-22T01:03:51.524Z,55.73
2023-03-22T01:07:01.453Z,56.59
2023-03-22T01:10:07.387Z,55.76
2023-03-22T01:13:30.670Z,57.23
2023-03-22T01:16:35.943Z,56.62
2023-03-22T01:19:40.082Z,56.88
2023-03-22T01:22:45.009Z,56.49
2023-03-22T01:25:49.343Z,57.06
2023-03-22T01:28:52.964Z,56.17
2023-03-22T01:31:58.797Z,57.38
2023-03-22T01:35:02.450Z,58.48
2023-03-22T01:38:07.869Z,58.11
2023-03-22T01:41:18.093Z,57.29
2023-03-22T01:44:25.682Z,56.93
2023-03-22T01:47:36.478Z,56.36
2023-03-22T01:50:46.491Z,55.53
2023-03-22T01:53:52.934Z,55.38
2023-03-22T01:56:57.962Z,54.50
2023-03-22T02:00:15.566Z,55.82
2023-03-22T02:03:48.324Z,55.80
2023-03-22T02:06:55.864Z,54.69
2023-03-22T02:10:03.681Z,54.04
2023-03-22T02:13:49.121Z,54.10
2023-03-22T02:17:33.695Z,54.51
2023-03-22T02:21:21.354Z,55.45
2023-03-22T02:24:55.671Z,56.19
2023-03-22T02:28:24.072Z,55.57
2023-03-22T02:31:50.310Z,55.68
2023-03-22T02:35:26.780Z,54.60
2023-03-22T02:39:04.532Z,53.60
2023-03-22T02:42:33.540Z,53.74
2023-03-22T02:45:47.858Z,54.77
2023-03-22T02:49:00.375Z,55.09
2023-03-22T02:52:17.583Z,54.51
2023-03-22T02:55:27.670Z,53.53
2023-03-22T02:58:38.290Z,53.77
2023-03-22T03:01:46.240Z,53.69
2023-03-22T03:04:53.289Z,55.13
2023-03-22T03:08:04.172Z,54.89
2023-03-22T03:11:11.808Z,55.71
2023-03-22T03:14:23.433Z,54.80
2023-03-22T03:17:52.253Z,54.34
2023-03-22T03:21:04.744Z,54.63
2023-03-22T03:24:22.753Z,54.08
2023-03-22T03:27:36.613Z,54.14
2023-03-22T03:30:49.656Z,54.39
2023-03-22T03:34:01.540Z,53.71
2023-03-22T03:37:11.778Z,53.65
2023-03-22T03:40:19.940Z,54.53
2023-03-22T03:43:26.344Z,54.94
2023-03-22T03:46:31.482Z,55.42
2023-03-22T03:49:38.513Z,55.02
2023-03-22T03:52:42.913Z,55.36
2023-03-22T03:55:47.230Z,55.02
2023-03-22T03:58:53.446Z,55.35
2023-03-22T04:01:57.787Z,55.79
2023-03-22T04:05:07.617Z,56.63
2023-03-22T04:08:13.406Z,54.81
2023-03-22T04:11:36.199Z,55.32
2023-03-22T04:14:43.506Z,55.27
2023-03-22T04:17:55.962Z,54.60
2023-03-22T04:21:03.607Z,53.46
2023-03-22T04:24:15.169Z,54.53
2023-03-22T04:27:22.874Z,55.30
2023-03-22T04:30:36.996Z,54.32
2023-03-22T04:33:56.629Z,54.23
2023-03-22T04:37:27.179Z,55.40
2023-03-22T04:40:52.648Z,55.84
2023-03-22T04:44:05.810Z,55.25
2023-03-22T04:47:14.890Z,55.45
2023-03-22T04:50:19.406Z,55.38
2023-03-22T04:53:28.411Z,55.88
2023-03-22T04:56:37.373Z,53.77
2023-03-22T04:59:42.146Z,54.04
2023-03-22T05:02:49.972Z,53.66
2023-03-22T05:06:15.477Z,53.78
2023-03-22T05:09:45.804Z,53.77
2023-03-22T05:12:51.283Z,54.39
2023-03-22T05:16:00.364Z,55.37
2023-03-22T05:19:16.706Z,55.32
2023-03-22T05:22:24.559Z,55.57
2023-03-22T05:25:34.423Z,55.48
2023-03-22T05:29:11.082Z,55.29
2023-03-22T05:32:33.378Z,55.82
2023-03-22T05:35:40.561Z,56.18
2023-03-22T05:38:46.633Z,55.92
2023-03-22T05:41:50.839Z,56.58
2023-03-22T05:44:56.594Z,57.50
2023-03-22T05:48:00.653Z,56.48
2023-03-22T05:51:09.439Z,56.52
2023-03-22T05:54:13.788Z,56.44
2023-03-22T05:57:24.845Z,57.01
2023-03-22T06:00:32.992Z,56.96
2023-03-22T06:04:00.574Z,56.58
2023-03-22T06:07:18.433Z,57.39
2023-03-22T06:10:28.885Z,58.09
2023-03-22T06:13:32.549Z,58.29
2023-03-22T06:16:36.675Z,57.83
2023-03-22T06:19:41.379Z,57.44
2023-03-22T06:22:50.537Z,57.19
2023-03-22T06:25:55.069Z,57.61
2023-03-22T06:29:00.369Z,57.26
2023-03-22T06:32:04.930Z,57.71
2023-03-22T06:35:10.140Z,57.82
2023-03-22T06:38:15.893Z,58.13
2023-03-22T06:41:21.213Z,58.47
2023-03-22T06:44:26.713Z,58.04
2023-03-22T06:47:47.887Z,57.16
2023-03-22T06:51:09.999Z,58.24
2023-03-22T06:54:16.888Z,57.13
2023-03-22T06:57:20.616Z,56.74
2023-03-22T07:00:25.089Z,54.61
2023-03-22T07:03:29.107Z,53.71
2023-03-22T07:06:41.895Z,53.42
2023-03-22T07:10:07.905Z,51.34
2023-03-22T07:13:12.161Z,50.91
2023-03-22T07:16:18.104Z,49.26
2023-03-22T07:19:34.546Z,48.57
2023-03-22T07:22:43.394Z,46.06
2023-03-22T07:25:49.543Z,43.54
2023-03-22T07:28:59.548Z,45.29
2023-03-22T07:32:07.665Z,44.08
2023-03-22T07:35:29.275Z,43.30
2023-03-22T07:38:34.247Z,41.72
2023-03-22T07:41:41.062Z,42.91
2023-03-22T07:45:10.199Z,41.89
2023-03-22T07:48:24.767Z,40.90
2023-03-22T07:51:37.844Z,39.48
2023-03-22T07:54:42.488Z,39.14
2023-03-22T07:57:48.383Z,40.55
2023-03-22T08:00:53.175Z,38.72
2023-03-22T08:04:15.923Z,40.02
2023-03-22T08:07:35.414Z,39.14
2023-03-22T08:10:40.488Z,40.06
2023-03-22T08:13:45.669Z,41.71
2023-03-22T08:16:49.923Z,41.86
2023-03-22T08:19:55.998Z,42.41
2023-03-22T08:23:14.925Z,42.62
2023-03-22T08:26:37.667Z,42.04
2023-03-22T08:29:56.539Z,41.59
2023-03-22T08:33:00.135Z,41.73
2023-03-22T08:36:08.944Z,42.26
2023-03-22T08:39:18.877Z,42.69
2023-03-22T08:42:32.162Z,43.64
2023-03-22T08:45:37.707Z,42.68
2023-03-22T08:48:50.882Z,42.63
2023-03-22T08:52:03.710Z,42.24
2023-03-22T08:55:20.127Z,43.15
2023-03-22T08:58:46.519Z,42.87
2023-03-22T09:02:14.632Z,43.47
2023-03-22T09:05:18.914Z,44.33
2023-03-22T09:08:23.278Z,42.38
2023-03-22T09:11:37.322Z,43.25
2023-03-22T09:14:41.724Z,41.58
2023-03-22T09:17:46.855Z,40.69
2023-03-22T09:20:52.746Z,41.96
2023-03-22T09:24:00.959Z,41.71
2023-03-22T09:27:15.203Z,40.75
2023-03-22T09:30:19.466Z,40.91
2023-03-22T09:33:29.387Z,40.83
2023-03-22T09:36:34.419Z,39.57
2023-03-22T09:39:39.167Z,39.39
2023-03-22T09:42:47.536Z,39.87
2023-03-22T09:45:54.057Z,40.43
2023-03-22T09:49:02.207Z,39.98
2023-03-22T09:52:13.499Z,39.43
2023-03-22T09:55:27.769Z,40.13
2023-03-22T09:58:37.657Z,39.97
2023-03-22T10:01:52.991Z,39.40
2023-03-22T10:05:06.517Z,39.54
2023-03-22T10:08:31.550Z,40.21
2023-03-22T10:11:45.964Z,37.70
2023-03-22T10:14:53.114Z,38.68
2023-03-22T10:18:00.380Z,39.98
2023-03-22T10:21:12.383Z,39.99
2023-03-22T10:24:23.954Z,39.63
2023-03-22T10:27:30.095Z,38.64
2023-03-22T10:30:40.156Z,39.06
2023-03-22T10:33:51.315Z,37.97
2023-03-22T10:37:00.419Z,38.59
2023-03-22T10:40:09.453Z,37.63
2023-03-22T10:43:23.977Z,38.15
2023-03-22T10:46:33.038Z,38.23
2023-03-22T10:49:40.992Z,38.41
2023-03-22T10:52:52.663Z,38.32
2023-03-22T10:56:00.446Z,37.38
2023-03-22T10:59:04.205Z,36.88
2023-03-22T11:02:21.753Z,36.88
2023-03-22T11:05:27.826Z,36.09
2023-03-22T11:08:40.744Z,36.63
2023-03-22T11:11:51.175Z,38.38
2023-03-22T11:14:55.585Z,35.84
2023-03-22T11:18:08.886Z,35.45
2023-03-22T11:21:17.546Z,36.09
2023-03-22T11:24:26.771Z,35.87
2023-03-22T11:27:34.728Z,37.17
2023-03-22T11:30:41.238Z,36.60
2023-03-22T11:33:57.705Z,37.17
2023-03-22T11:37:02.492Z,36.81
2023-03-22T11:40:16.314Z,38.03
2023-03-22T11:43:25.438Z,37.77
2023-03-22T11:46:32.609Z,37.20
2023-03-22T11:49:46.301Z,37.80
2023-03-22T11:52:50.624Z,37.14
2023-03-22T11:55:58.977Z,36.95
2023-03-22T11:59:08.783Z,36.39
2023-03-22T12:02:21.665Z,36.75
2023-03-22T12:05:27.664Z,37.63
2023-03-22T12:08:42.820Z,35.76
2023-03-22T12:11:52.620Z,36.14
2023-03-22T12:15:03.140Z,36.99
2023-03-22T12:18:16.117Z,36.44
2023-03-22T12:21:19.961Z,37.11
2023-03-22T12:24:30.936Z,36.99
2023-03-22T12:27:41.022Z,36.83
2023-03-22T12:30:49.236Z,37.57
2023-03-22T12:33:57.291Z,37.55
2023-03-22T12:37:05.333Z,36.35
2023-03-22T12:40:21.119Z,37.26
2023-03-22T12:43:41.243Z,36.60
2023-03-22T12:46:51.835Z,36.38
2023-03-22T12:50:00.630Z,36.77
2023-03-22T12:53:06.764Z,35.64
2023-03-22T12:56:16.714Z,36.03
2023-03-22T13:03:03.968Z,35.10
2023-03-22T13:06:33.780Z,34.61
2023-03-22T13:09:43.594Z,34.07
2023-03-22T13:13:12.236Z,32.94
2023-03-22T13:16:22.980Z,33.11
2023-03-22T13:19:37.768Z,32.76
2023-03-22T13:23:19.626Z,32.26
2023-03-22T13:26:29.316Z,33.98
2023-03-22T13:29:37.634Z,36.15
2023-03-22T13:32:56.190Z,35.91
2023-03-22T13:36:09.471Z,35.71
2023-03-22T13:39:16.407Z,35.41
2023-03-22T13:42:22.827Z,35.26
2023-03-22T13:45:34.814Z,34.83
2023-03-22T13:48:52.372Z,35.57
2023-03-22T13:52:00.166Z,33.89
2023-03-22T13:55:15.507Z,33.68
2023-03-22T13:58:39.594Z,33.75
2023-03-22T14:01:47.832Z,34.38
2023-03-22T14:04:56.210Z,32.86
2023-03-22T14:08:04.481Z,34.02
2023-03-22T14:11:27.285Z,34.51
2023-03-22T14:14:37.118Z,35.00
2023-03-22T14:17:45.963Z,34.78
2023-03-22T14:20:59.496Z,35.89
